Time;durP1;ratioP1;P1;durP2;ratioP2;P2;SDS_P1;SDS_P2;PMS_P1;PMS_P2;Temp;Humidity;BMP_temperature;BMP_pressure;BME280_temperature;BME280_humidity;BME280_pressure;Samples;Min_cycle;Max_cycle;Signal;HPM_P1;HPM_P2
2022/05/25 00:02:08;;;;;;;4.40;4.00;;;10.80;99.90;;;;;;5115685;28;20057;-55
2022/05/25 00:04:34;;;;;;;3.92;3.53;;;10.80;99.90;;;;;;5115756;28;20155;-55
2022/05/25 00:06:59;;;;;;;8.15;4.40;;;10.70;99.90;;;;;;5115521;28;20508;-55
2022/05/25 00:09:25;;;;;;;4.35;3.95;;;10.70;99.90;;;;;;5115890;28;20035;-55
2022/05/25 00:11:51;;;;;;;6.97;3.95;;;10.70;99.90;;;;;;5115626;28;20048;-55
2022/05/25 00:14:16;;;;;;;7.35;4.10;;;10.60;99.90;;;;;;5115666;28;20039;-55
2022/05/25 00:16:42;;;;;;;4.50;3.75;;;10.50;99.90;;;;;;5115424;28;20489;-55
2022/05/25 00:21:52;;;;;;;5.40;4.57;;;10.50;99.90;;;;;;5115207;28;20047;-55
2022/05/25 00:24:17;;;;;;;6.68;4.72;;;10.50;99.90;;;;;;5115302;28;20160;-55
2022/05/25 00:26:43;;;;;;;6.38;4.97;;;10.50;99.90;;;;;;5115483;28;20096;-55
2022/05/25 00:29:09;;;;;;;5.93;4.53;;;10.50;99.90;;;;;;5115392;28;20035;-55
2022/05/25 00:31:35;;;;;;;9.30;4.85;;;10.60;99.90;;;;;;5115296;28;20039;-55
2022/05/25 00:34:00;;;;;;;6.43;4.53;;;10.60;99.90;;;;;;5115122;28;20118;-55
2022/05/25 00:36:27;;;;;;;6.40;4.70;;;10.60;99.90;;;;;;5096145;28;20135;-54
2022/05/25 00:38:52;;;;;;;8.63;4.75;;;10.60;99.90;;;;;;5097158;28;20035;-55
2022/05/25 00:41:23;;;;;;;9.25;5.18;;;10.40;99.90;;;;;;5115048;28;20104;-54
2022/05/25 00:43:51;;;;;;;7.57;4.82;;;10.40;99.90;;;;;;5114978;28;20031;-55
2022/05/25 00:46:20;;;;;;;5.38;4.85;;;10.40;99.90;;;;;;5114994;28;20403;-55
2022/05/25 00:48:54;;;;;;;6.38;4.97;;;10.30;99.90;;;;;;5114859;28;20497;-54
2022/05/25 00:51:25;;;;;;;7.15;5.35;;;10.30;99.90;;;;;;5113480;28;20524;-55
2022/05/25 00:54:01;;;;;;;7.00;5.43;;;10.30;99.90;;;;;;5115100;28;20048;-55
2022/05/25 00:56:29;;;;;;;7.25;5.80;;;10.30;99.90;;;;;;5114876;28;20032;-55
2022/05/25 00:59:12;;;;;;;6.22;5.72;;;10.20;99.90;;;;;;5114814;28;20085;-54
2022/05/25 01:01:38;;;;;;;8.18;6.00;;;10.20;99.90;;;;;;5114690;28;20474;-55
2022/05/25 01:04:04;;;;;;;8.18;6.38;;;10.20;99.90;;;;;;5114665;28;20058;-55
2022/05/25 01:06:49;;;;;;;10.23;6.25;;;10.20;99.90;;;;;;5114917;28;20039;-55
2022/05/25 01:09:35;;;;;;;8.82;5.95;;;10.10;99.90;;;;;;5114391;28;20495;-55
2022/05/25 01:12:35;;;;;;;11.52;5.57;;;10.20;99.90;;;;;;5031916;28;20049;-55
2022/05/25 01:15:08;;;;;;;6.90;6.20;;;10.10;99.90;;;;;;5031660;28;20042;-54
2022/05/25 01:17:40;;;;;;;8.48;5.60;;;10.10;99.90;;;;;;5031575;28;20048;-54
2022/05/25 01:20:09;;;;;;;7.85;5.28;;;10.20;99.90;;;;;;5031471;28;20029;-54
2022/05/25 01:22:34;;;;;;;9.43;6.47;;;10.20;99.90;;;;;;5031567;28;20041;-55
2022/05/25 01:25:33;;;;;;;7.88;5.97;;;10.20;99.90;;;;;;5031540;28;20094;-55
2022/05/25 01:28:28;;;;;;;9.13;6.93;;;10.20;99.90;;;;;;5031359;28;20522;-54
2022/05/25 01:30:56;;;;;;;7.07;6.28;;;10.20;99.90;;;;;;4953209;29;20117;-54
2022/05/25 01:33:45;;;;;;;11.85;6.22;;;10.10;99.90;;;;;;4953420;29;20055;-54
2022/05/25 01:36:31;;;;;;;8.10;6.45;;;10.10;99.90;;;;;;4953132;29;20089;-54
2022/05/25 01:39:04;;;;;;;7.20;6.32;;;10.10;99.90;;;;;;4953402;29;20066;-55
2022/05/25 01:41:41;;;;;;;7.72;6.85;;;10.10;99.90;;;;;;4953060;29;20048;-55
2022/05/25 01:44:13;;;;;;;10.85;7.60;;;10.10;99.90;;;;;;4953325;29;20155;-54
2022/05/25 01:46:45;;;;;;;10.38;6.07;;;10.00;99.90;;;;;;4953177;29;20188;-55
2022/05/25 01:49:15;;;;;;;8.48;7.20;;;10.00;99.90;;;;;;4994797;28;20049;-54
2022/05/25 01:51:42;;;;;;;11.10;7.30;;;10.00;99.90;;;;;;5031080;28;20484;-54
2022/05/25 01:54:12;;;;;;;12.65;7.60;;;10.00;99.90;;;;;;5030873;28;20081;-55
2022/05/25 01:56:43;;;;;;;8.20;6.90;;;9.90;99.90;;;;;;5031126;28;20037;-54
2022/05/25 01:59:12;;;;;;;11.52;7.43;;;9.90;99.90;;;;;;5030958;28;20124;-54
2022/05/25 02:01:46;;;;;;;;;;;9.90;99.90;;;;;;5031344;28;20832;-55
2022/05/25 02:04:21;;;;;;;11.02;8.38;;;9.80;99.90;;;;;;5030929;28;20023;-54
2022/05/25 02:07:11;;;;;;;11.48;8.13;;;9.80;99.90;;;;;;5031160;28;20176;-54
2022/05/25 02:09:45;;;;;;;11.23;7.63;;;9.80;99.90;;;;;;5113337;28;20035;-54
2022/05/25 02:12:21;;;;;;;12.35;7.47;;;9.80;99.90;;;;;;5113254;28;20055;-53
2022/05/25 02:15:21;;;;;;;9.55;8.55;;;9.80;99.90;;;;;;5113199;28;20039;-54
2022/05/25 02:18:02;;;;;;;8.65;7.72;;;9.70;99.90;;;;;;5030528;28;20049;-55
2022/05/25 02:20:45;;;;;;;11.75;9.18;;;9.70;99.90;;;;;;5030363;28;20128;-54
2022/05/25 02:23:37;;;;;;;10.10;8.93;;;9.70;99.90;;;;;;5030626;28;20045;-54
2022/05/25 02:26:22;;;;;;;9.93;8.70;;;9.70;99.90;;;;;;5030554;28;20103;-54
2022/05/25 02:29:05;;;;;;;10.05;8.63;;;9.70;99.90;;;;;;5029561;28;20079;-54
2022/05/25 02:31:36;;;;;;;13.40;9.98;;;9.70;99.90;;;;;;5030366;28;20060;-55
2022/05/25 02:34:04;;;;;;;10.20;9.10;;;9.70;99.90;;;;;;5030012;28;20060;-54
2022/05/25 02:36:34;;;;;;;12.45;9.80;;;9.80;99.90;;;;;;5030225;28;20045;-54
2022/05/25 02:39:03;;;;;;;13.07;10.65;;;9.70;99.90;;;;;;5030423;28;20408;-54
2022/05/25 02:41:31;;;;;;;12.05;10.70;;;9.70;99.90;;;;;;5030437;28;20057;-54
2022/05/25 02:43:58;;;;;;;12.43;11.07;;;9.70;99.90;;;;;;5030258;28;20555;-55
2022/05/25 02:46:24;;;;;;;12.50;10.35;;;9.70;99.90;;;;;;5030298;28;20049;-54
2022/05/25 02:48:50;;;;;;;12.65;10.80;;;9.70;99.90;;;;;;5030013;28;20044;-54
2022/05/25 02:51:16;;;;;;;13.60;11.45;;;9.70;99.90;;;;;;5030156;28;20037;-54
2022/05/25 02:53:42;;;;;;;12.25;10.90;;;9.70;99.90;;;;;;5044441;28;20059;-54
2022/05/25 02:56:07;;;;;;;12.43;11.20;;;9.70;99.90;;;;;;5052337;28;20079;-54
2022/05/25 02:58:33;;;;;;;13.25;11.48;;;9.70;99.90;;;;;;5052488;28;20040;-54
2022/05/25 03:00:59;;;;;;;14.25;11.57;;;9.70;99.90;;;;;;5052150;28;20040;-55
2022/05/25 03:03:25;;;;;;;11.73;10.52;;;9.70;99.90;;;;;;5052070;28;20040;-54
2022/05/25 03:05:51;;;;;;;18.83;11.35;;;9.70;99.90;;;;;;5050808;28;20045;-54
2022/05/25 03:08:17;;;;;;;12.85;10.88;;;9.70;99.90;;;;;;5052045;28;20168;-54
2022/05/25 03:10:43;;;;;;;13.43;11.80;;;9.70;99.90;;;;;;5052258;28;20048;-54
2022/05/25 03:13:09;;;;;;;12.20;11.02;;;9.70;99.90;;;;;;5052198;28;20387;-55
2022/05/25 03:15:36;;;;;;;14.80;12.35;;;9.60;99.90;;;;;;5055580;28;20395;-55
2022/05/25 03:18:01;;;;;;;15.52;12.30;;;9.70;99.90;;;;;;5056323;28;20052;-54
2022/05/25 03:20:28;;;;;;;14.27;11.40;;;9.60;99.90;;;;;;5066533;28;20051;-54
2022/05/25 03:22:54;;;;;;;13.68;11.73;;;9.60;99.90;;;;;;5096028;28;20364;-54
2022/05/25 03:25:19;;;;;;;13.85;11.80;;;9.60;99.90;;;;;;5077677;28;20055;-55
2022/05/25 03:27:45;;;;;;;13.23;11.52;;;9.60;99.90;;;;;;5096447;28;20044;-54
2022/05/25 03:30:13;;;;;;;16.15;13.30;;;9.70;99.90;;;;;;5096467;28;20050;-54
2022/05/25 03:32:39;;;;;;;14.03;11.47;;;9.60;99.90;;;;;;5096234;28;20050;-54
2022/05/25 03:35:06;;;;;;;15.43;13.13;;;9.70;99.90;;;;;;5096523;28;20044;-54
2022/05/25 03:37:32;;;;;;;13.85;11.52;;;9.60;99.90;;;;;;5096047;28;20048;-54
2022/05/25 03:39:58;;;;;;;15.57;12.75;;;9.60;99.90;;;;;;5096194;28;20036;-54
2022/05/25 03:42:24;;;;;;;15.10;11.68;;;9.60;99.90;;;;;;5096164;28;20032;-54
2022/05/25 03:44:50;;;;;;;17.48;11.95;;;9.60;99.90;;;;;;5095888;28;20036;-54
2022/05/25 03:47:17;;;;;;;13.93;12.05;;;9.60;99.90;;;;;;5095981;28;20040;-54
2022/05/25 03:49:42;;;;;;;15.85;12.38;;;9.60;99.90;;;;;;5095614;28;20044;-55
2022/05/25 03:52:08;;;;;;;18.40;13.23;;;9.60;99.90;;;;;;5095619;28;20115;-54
2022/05/25 03:54:37;;;;;;;15.60;12.30;;;9.60;99.90;;;;;;5095473;28;20075;-54
2022/05/25 03:57:04;;;;;;;17.83;12.82;;;9.60;99.90;;;;;;5095612;28;20490;-54
2022/05/25 03:59:30;;;;;;;15.00;12.20;;;9.60;99.90;;;;;;5095903;28;20032;-54
2022/05/25 04:01:55;;;;;;;16.88;12.43;;;9.60;99.90;;;;;;5095452;28;20043;-54
2022/05/25 04:04:21;;;;;;;14.05;12.23;;;9.60;99.90;;;;;;5095547;28;20104;-55
2022/05/25 04:06:47;;;;;;;16.55;11.70;;;9.60;99.90;;;;;;5095741;28;20846;-54
2022/05/25 04:09:12;;;;;;;14.68;12.82;;;9.60;99.90;;;;;;5095541;28;20036;-54
2022/05/25 04:11:41;;;;;;;17.10;12.90;;;9.70;99.90;;;;;;5095585;28;20036;-54
2022/05/25 04:14:07;;;;;;;14.82;13.05;;;9.70;99.90;;;;;;5095225;28;20036;-54
2022/05/25 04:16:33;;;;;;;15.70;11.95;;;9.70;99.90;;;;;;5095243;28;20051;-54
2022/05/25 04:18:59;;;;;;;13.43;12.02;;;9.70;99.90;;;;;;5095236;28;20107;-54
2022/05/25 04:21:24;;;;;;;14.38;12.68;;;9.80;99.90;;;;;;5101888;28;20100;-55
2022/05/25 04:23:50;;;;;;;19.50;13.35;;;9.80;99.90;;;;;;5115465;28;20431;-54
2022/05/25 04:26:16;;;;;;;14.77;12.80;;;9.80;99.90;;;;;;5115526;28;20046;-54
2022/05/25 04:28:41;;;;;;;16.65;13.20;;;9.80;99.90;;;;;;5115384;28;20119;-54
2022/05/25 04:31:07;;;;;;;15.15;12.43;;;9.90;99.90;;;;;;5115249;28;20031;-55
2022/05/25 04:33:35;;;;;;;16.85;13.65;;;10.00;99.90;;;;;;5115691;28;20067;-54
2022/05/25 04:36:01;;;;;;;17.10;12.70;;;9.90;99.90;;;;;;5115227;28;20043;-54
2022/05/25 04:38:26;;;;;;;15.02;12.05;;;9.90;99.90;;;;;;5115219;28;20093;-54
2022/05/25 04:40:52;;;;;;;15.23;11.55;;;10.00;99.90;;;;;;5115107;28;20041;-54
2022/05/25 04:43:21;;;;;;;14.48;12.10;;;10.00;99.90;;;;;;5115005;28;20043;-54
2022/05/25 04:45:48;;;;;;;17.38;12.40;;;10.00;99.90;;;;;;5115217;28;20039;-55
2022/05/25 04:48:15;;;;;;;16.27;13.07;;;10.10;99.90;;;;;;5115192;28;20039;-55
2022/05/25 04:50:43;;;;;;;16.75;12.48;;;10.20;99.90;;;;;;5115305;28;20738;-55
2022/05/25 04:53:11;;;;;;;17.13;12.77;;;10.30;99.90;;;;;;5113828;28;20039;-55
2022/05/25 04:58:23;;;;;;;15.60;11.98;;;10.40;99.90;;;;;;5114938;28;20089;-55
2022/05/25 05:00:49;;;;;;;17.08;12.55;;;10.50;99.90;;;;;;5114713;28;20110;-55
2022/05/25 05:03:17;;;;;;;17.80;13.18;;;10.60;99.90;;;;;;5114926;28;20040;-54
2022/05/25 05:05:44;;;;;;;16.25;12.20;;;10.70;99.90;;;;;;5114808;28;20043;-54
2022/05/25 05:08:09;;;;;;;19.60;12.27;;;10.70;99.90;;;;;;5114720;28;20050;-55
2022/05/25 05:10:35;;;;;;;13.48;12.07;;;10.80;99.90;;;;;;5114392;28;20406;-55
2022/05/25 05:13:05;;;;;;;14.75;11.65;;;10.90;99.90;;;;;;5114447;28;20039;-54
2022/05/25 05:15:43;;;;;;;13.20;11.65;;;11.00;99.90;;;;;;5114638;28;20032;-55
2022/05/25 05:18:09;;;;;;;16.33;12.50;;;11.10;99.90;;;;;;5114509;28;20043;-54
2022/05/25 05:20:35;;;;;;;16.33;12.02;;;11.10;99.90;;;;;;5095107;28;20043;-55
2022/05/25 05:23:01;;;;;;;14.70;12.00;;;11.30;99.90;;;;;;5113753;28;20050;-54
2022/05/25 05:25:27;;;;;;;13.90;10.85;;;11.30;99.90;;;;;;5114100;28;20455;-55
2022/05/25 05:27:53;;;;;;;15.25;11.82;;;11.40;99.90;;;;;;5114040;28;20520;-55
2022/05/25 05:30:22;;;;;;;15.20;11.77;;;11.50;99.90;;;;;;5114028;28;20031;-55
2022/05/25 05:32:48;;;;;;;13.27;11.82;;;11.60;99.90;;;;;;5114352;28;20122;-55
2022/05/25 05:35:14;;;;;;;12.25;10.95;;;11.70;99.90;;;;;;5113806;28;20232;-55
2022/05/25 05:37:50;;;;;;;15.00;11.85;;;11.70;99.90;;;;;;5113344;28;20036;-55
2022/05/25 05:40:18;;;;;;;12.30;10.50;;;11.70;99.90;;;;;;5113846;28;20083;-55
2022/05/25 05:42:47;;;;;;;13.18;10.75;;;11.90;99.90;;;;;;5114014;28;20050;-55
2022/05/25 05:45:24;;;;;;;13.88;11.32;;;11.90;99.90;;;;;;5113917;28;20482;-55
2022/05/25 05:48:01;;;;;;;15.32;11.25;;;11.90;99.90;;;;;;5113793;28;20450;-55
2022/05/25 05:50:29;;;;;;;13.88;11.07;;;12.00;99.90;;;;;;5113580;28;20055;-55
2022/05/25 05:52:56;;;;;;;14.00;10.93;;;12.20;99.90;;;;;;5113530;28;20092;-55
2022/05/25 05:55:22;;;;;;;16.63;11.13;;;12.20;99.90;;;;;;5113679;28;20044;-55
2022/05/25 05:57:48;;;;;;;13.98;10.90;;;12.30;99.90;;;;;;5113629;28;20038;-55
2022/05/25 06:00:15;;;;;;;14.35;10.75;;;12.40;99.90;;;;;;5113572;28;20036;-55
2022/05/25 06:02:44;;;;;;;17.70;10.70;;;12.50;99.90;;;;;;5113161;28;20079;-55
2022/05/25 06:05:10;;;;;;;;;;;12.60;99.90;;;;;;5113782;28;20123;-55
2022/05/25 06:07:37;;;;;;;17.50;10.82;;;12.80;99.90;;;;;;5113102;28;19923;-56
2022/05/25 06:10:04;;;;;;;15.90;11.00;;;12.90;99.90;;;;;;5113272;28;20036;-55
2022/05/25 06:12:31;;;;;;;10.95;9.88;;;13.00;99.90;;;;;;5113279;28;20036;-55
2022/05/25 06:14:56;;;;;;;12.80;10.23;;;13.20;99.90;;;;;;5113176;28;20119;-55
2022/05/25 06:20:07;;;;;;;12.02;9.20;;;13.40;99.90;;;;;;5113354;28;20051;-55
2022/05/25 06:22:33;;;;;;;9.43;8.43;;;13.60;99.90;;;;;;5113239;28;20114;-55
2022/05/25 06:24:59;;;;;;;9.30;7.90;;;13.80;99.90;;;;;;5113249;28;20455;-55
2022/05/25 06:27:25;;;;;;;11.07;8.10;;;13.80;99.90;;;;;;5113160;28;20510;-55
2022/05/25 06:29:50;;;;;;;9.45;8.27;;;14.00;99.90;;;;;;5113146;28;20398;-55
2022/05/25 06:32:19;;;;;;;10.68;7.93;;;14.20;99.90;;;;;;5113213;28;20071;-55
2022/05/25 06:34:48;;;;;;;8.15;7.20;;;14.50;99.90;;;;;;5112929;28;20050;-55
2022/05/25 06:37:16;;;;;;;10.45;7.13;;;14.70;99.90;;;;;;5113061;28;20092;-55
2022/05/25 06:39:42;;;;;;;8.50;6.83;;;14.80;99.90;;;;;;5093705;28;20043;-55
2022/05/25 06:42:08;;;;;;;9.52;6.60;;;14.90;99.90;;;;;;5095989;28;20500;-55
2022/05/25 06:44:34;;;;;;;8.00;5.72;;;15.20;99.90;;;;;;5103568;28;20042;-55
2022/05/25 06:47:00;;;;;;;13.23;6.43;;;15.20;99.90;;;;;;5092706;28;20067;-55
2022/05/25 06:49:25;;;;;;;9.25;5.65;;;15.40;99.90;;;;;;5091338;28;20508;-55
2022/05/25 06:51:51;;;;;;;7.03;5.60;;;15.70;99.90;;;;;;5092266;28;20076;-55
2022/05/25 06:54:18;;;;;;;7.18;5.05;;;15.80;99.90;;;;;;5092182;28;20126;-55
2022/05/25 06:56:44;;;;;;;6.63;4.95;;;16.10;99.90;;;;;;5092381;28;20039;-55
2022/05/25 06:59:10;;;;;;;10.93;6.20;;;16.20;99.90;;;;;;5092280;28;20043;-55
2022/05/25 07:01:38;;;;;;;8.40;5.50;;;16.50;99.90;;;;;;5092519;28;20042;-55
2022/05/25 07:04:05;;;;;;;9.07;5.72;;;16.60;99.90;;;;;;5101317;28;20080;-55
2022/05/25 07:06:31;;;;;;;7.30;6.15;;;16.80;99.90;;;;;;5112534;28;20043;-55
2022/05/25 07:08:57;;;;;;;8.23;5.88;;;16.90;99.90;;;;;;5112925;28;20043;-55
2022/05/25 07:11:23;;;;;;;8.32;5.00;;;17.10;99.90;;;;;;5112764;28;20050;-55
2022/05/25 07:13:50;;;;;;;7.32;4.68;;;17.10;99.90;;;;;;5112429;28;20036;-55
2022/05/25 07:16:18;;;;;;;7.50;5.35;;;17.00;99.90;;;;;;5111106;28;20054;-55
2022/05/25 07:18:45;;;;;;;8.43;4.90;;;17.10;99.90;;;;;;5112642;28;20054;-55
2022/05/25 07:21:13;;;;;;;7.90;4.90;;;17.50;99.90;;;;;;5112284;28;20864;-55
2022/05/25 07:23:41;;;;;;;5.35;4.40;;;17.30;99.90;;;;;;5112174;28;20032;-55
2022/05/25 07:26:08;;;;;;;8.00;4.82;;;17.30;99.90;;;;;;5112287;28;20094;-55
2022/05/25 07:28:35;;;;;;;6.15;4.35;;;17.40;99.90;;;;;;5112162;28;20481;-55
2022/05/25 07:31:24;;;;;;;6.93;4.63;;;17.70;99.90;;;;;;5112469;28;20067;-55
2022/05/25 07:34:06;;;;;;;6.53;4.25;;;18.10;99.90;;;;;;5089750;28;20055;-55
2022/05/25 07:36:34;;;;;;;17.05;5.60;;;18.00;99.90;;;;;;5089610;28;20045;-55
2022/05/25 07:39:04;;;;;;;6.38;4.38;;;18.00;99.90;;;;;;5089584;28;20044;-55
2022/05/25 07:41:33;;;;;;;10.40;4.07;;;18.30;99.90;;;;;;5089258;28;20042;-55
2022/05/25 07:43:59;;;;;;;;;;;18.50;99.90;;;;;;5090106;28;20032;-55
2022/05/25 07:46:29;;;;;;;7.00;4.95;;;18.50;99.90;;;;;;5089706;28;20003;-55
2022/05/25 07:48:55;;;;;;;5.03;2.72;;;18.90;99.90;;;;;;5089445;28;20509;-55
2022/05/25 07:51:21;;;;;;;4.35;3.17;;;18.90;99.90;;;;;;5089452;28;20044;-55
2022/05/25 07:53:55;;;;;;;4.13;2.83;;;19.20;99.90;;;;;;5089539;28;20065;-55
2022/05/25 07:56:22;;;;;;;8.65;3.42;;;19.40;99.90;;;;;;5089724;28;20471;-55
2022/05/25 07:58:47;;;;;;;6.55;3.10;;;19.40;99.90;;;;;;5089894;28;20035;-56
2022/05/25 08:01:18;;;;;;;3.95;2.80;;;19.50;99.90;;;;;;5092517;28;20562;-55
2022/05/25 08:06:31;;;;;;;3.58;2.75;;;18.50;99.90;;;;;;5093361;28;20395;-55
2022/05/25 08:08:57;;;;;;;3.35;3.05;;;18.60;99.90;;;;;;5093319;28;20073;-55
2022/05/25 08:11:23;;;;;;;6.07;3.95;;;18.40;99.90;;;;;;5109734;28;20052;-56
2022/05/25 08:13:54;;;;;;;9.00;4.22;;;18.40;99.90;;;;;;5115708;28;20436;-55
2022/05/25 08:16:20;;;;;;;4.53;3.33;;;18.60;99.90;;;;;;5097445;28;20506;-55
2022/05/25 08:18:45;;;;;;;6.32;4.05;;;18.70;99.90;;;;;;5115805;28;20043;-55
2022/05/25 08:21:11;;;;;;;5.40;3.60;;;18.70;99.90;;;;;;5115572;28;20131;-55
2022/05/25 08:23:37;;;;;;;6.40;3.65;;;18.70;99.90;;;;;;5115742;28;20050;-56
2022/05/25 08:26:03;;;;;;;4.78;3.25;;;18.60;99.90;;;;;;5115597;28;20039;-55
2022/05/25 08:28:28;;;;;;;6.38;3.72;;;18.50;99.90;;;;;;5097493;28;20164;-55
2022/05/25 08:30:54;;;;;;;5.30;3.95;;;18.60;99.90;;;;;;5115348;28;20094;-55
2022/05/25 08:33:22;;;;;;;4.55;3.20;;;18.40;99.90;;;;;;5115192;28;20043;-55
2022/05/25 08:35:48;;;;;;;7.05;3.30;;;18.70;99.90;;;;;;5097094;28;20075;-55
2022/05/25 08:38:14;;;;;;;7.22;3.20;;;18.90;99.90;;;;;;5115449;28;20469;-56
2022/05/25 08:40:42;;;;;;;3.45;2.88;;;18.80;99.90;;;;;;5115374;28;20067;-55
2022/05/25 08:43:44;;;;;;;4.20;2.60;;;18.80;99.90;;;;;;5114340;28;20042;-55
2022/05/25 08:46:14;;;;;;;5.88;2.83;;;19.00;99.90;;;;;;5088883;28;20477;-55
2022/05/25 08:48:41;;;;;;;5.55;2.90;;;19.30;99.90;;;;;;5110336;28;20048;-56
2022/05/25 08:51:12;;;;;;;6.85;2.65;;;19.10;99.90;;;;;;5112157;28;20039;-55
2022/05/25 08:53:38;;;;;;;5.57;3.17;;;19.50;99.90;;;;;;5115201;28;20096;-55
2022/05/25 08:56:50;;;;;;;5.88;2.33;;;19.30;99.90;;;;;;5115030;28;20043;-55
2022/05/25 08:59:26;;;;;;;4.50;2.58;;;19.30;99.90;;;;;;5111764;28;20130;-55
2022/05/25 09:01:59;;;;;;;3.17;2.53;;;19.40;99.90;;;;;;5114695;28;20035;-55
2022/05/25 09:04:48;;;;;;;2.97;2.40;;;19.50;99.90;;;;;;5114824;28;20088;-55
2022/05/25 09:07:52;;;;;;;3.53;2.80;;;19.50;99.90;;;;;;5115085;28;20079;-56
2022/05/25 09:10:19;;;;;;;4.10;2.08;;;19.50;99.90;;;;;;5091957;28;20040;-56
2022/05/25 09:12:46;;;;;;;6.90;2.50;;;19.20;99.90;;;;;;5091201;28;20043;-56
2022/05/25 09:15:23;;;;;;;4.53;2.47;;;19.20;99.90;;;;;;5092111;28;20127;-55
2022/05/25 09:18:09;;;;;;;6.22;2.80;;;19.10;99.90;;;;;;5091532;28;20529;-55
2022/05/25 09:20:44;;;;;;;2.78;2.33;;;19.00;99.90;;;;;;5091723;28;20494;-55
2022/05/25 09:23:13;;;;;;;7.15;2.83;;;19.00;99.90;;;;;;5091709;28;20052;-55
2022/05/25 09:25:39;;;;;;;4.15;2.30;;;19.10;99.90;;;;;;5091505;28;20040;-55
2022/05/25 09:28:16;;;;;;;8.95;2.88;;;19.30;99.90;;;;;;5091703;28;20052;-55
2022/05/25 09:30:45;;;;;;;4.50;2.40;;;19.40;99.90;;;;;;5091546;28;20131;-55
2022/05/25 09:33:31;;;;;;;6.32;2.45;;;19.30;99.90;;;;;;5066988;28;20054;-55
2022/05/25 09:36:07;;;;;;;6.88;2.78;;;19.60;99.90;;;;;;5091152;28;20047;-55
2022/05/25 09:38:46;;;;;;;4.30;2.30;;;19.50;99.90;;;;;;5091217;28;20137;-55
2022/05/25 09:41:20;;;;;;;5.40;1.80;;;19.30;99.90;;;;;;5074505;28;20060;-55
2022/05/25 09:43:46;;;;;;;2.72;2.00;;;19.00;99.90;;;;;;5091303;28;20058;-55
2022/05/25 09:46:24;;;;;;;3.85;2.10;;;18.90;99.90;;;;;;5095883;28;20179;-55
2022/05/25 09:48:55;;;;;;;6.15;2.33;;;18.90;99.90;;;;;;5093340;28;20153;-55
2022/05/25 09:51:44;;;;;;;4.43;2.63;;;18.80;99.90;;;;;;5101887;28;20047;-56
2022/05/25 09:54:32;;;;;;;4.70;2.70;;;18.70;99.90;;;;;;5106388;28;20038;-55
2022/05/25 09:57:13;;;;;;;5.15;2.30;;;18.60;99.90;;;;;;5099583;28;20040;-55
2022/05/25 09:59:48;;;;;;;5.47;2.72;;;18.70;99.90;;;;;;5112737;28;20031;-55
2022/05/25 10:02:29;;;;;;;4.13;3.00;;;18.70;99.90;;;;;;5112894;28;20172;-55
2022/05/25 10:05:05;;;;;;;6.75;2.85;;;18.60;99.90;;;;;;5113381;28;20040;-55
2022/05/25 10:07:35;;;;;;;4.65;2.60;;;18.80;99.90;;;;;;5113595;28;20080;-55
2022/05/25 10:10:06;;;;;;;4.93;3.03;;;18.90;99.90;;;;;;5113392;28;20110;-56
2022/05/25 10:12:39;;;;;;;4.63;2.90;;;18.90;99.90;;;;;;5113261;28;20108;-55
2022/05/25 10:15:27;;;;;;;3.92;2.50;;;18.90;99.90;;;;;;5112966;28;20387;-55
2022/05/25 10:17:53;;;;;;;7.90;3.28;;;18.80;99.90;;;;;;5113301;28;20040;-55
2022/05/25 10:20:28;;;;;;;6.07;2.90;;;18.70;99.90;;;;;;5093861;28;20478;-55
2022/05/25 10:23:22;;;;;;;4.85;2.75;;;18.50;99.90;;;;;;5112624;28;20549;-55
2022/05/25 10:26:06;;;;;;;4.57;2.78;;;18.20;99.90;;;;;;5093976;28;20044;-55
2022/05/25 10:28:36;;;;;;;6.00;3.00;;;17.90;99.90;;;;;;5113332;28;20035;-55
2022/05/25 10:37:11;;;;;;;3.90;2.78;;;17.90;99.90;;;;;;5113100;28;20052;-55
2022/05/25 10:39:40;;;;;;;4.43;3.35;;;17.90;99.90;;;;;;5095051;28;20088;-55
2022/05/25 10:42:28;;;;;;;7.53;3.20;;;17.90;99.90;;;;;;5112980;28;20035;-56
2022/05/25 10:45:10;;;;;;;4.65;2.60;;;17.90;99.90;;;;;;5112880;28;20509;-55
2022/05/25 10:50:43;;;;;;;6.72;2.80;;;17.80;99.90;;;;;;5112674;28;20485;-55
2022/05/25 10:53:20;;;;;;;5.55;3.10;;;17.90;99.90;;;;;;5112880;28;20047;-55
2022/05/25 10:55:58;;;;;;;6.88;3.05;;;17.70;99.90;;;;;;5112321;28;20508;-55
2022/05/25 10:59:11;;;;;;;5.50;2.80;;;17.70;99.90;;;;;;5112626;28;20031;-55
2022/05/25 11:01:57;;;;;;;7.00;3.45;;;17.50;99.90;;;;;;5030091;28;20046;-56
2022/05/25 11:04:41;;;;;;;6.47;3.38;;;17.50;99.90;;;;;;5029894;28;20116;-55
2022/05/25 11:07:34;;;;;;;7.60;4.32;;;17.20;99.90;;;;;;5029570;28;20554;-55
2022/05/25 11:10:33;;;;;;;6.80;4.78;;;16.90;99.90;;;;;;5029553;28;20041;-56
2022/05/25 11:13:36;;;;;;;10.50;5.43;;;16.80;99.90;;;;;;5029643;28;20523;-55
2022/05/25 11:16:15;;;;;;;6.80;4.30;;;16.40;99.90;;;;;;5029809;28;20371;-55
2022/05/25 11:18:56;;;;;;;6.15;3.47;;;16.00;99.90;;;;;;5029691;28;20049;-55
2022/05/25 11:21:45;;;;;;;7.05;3.78;;;15.70;99.90;;;;;;5029593;28;20439;-55
2022/05/25 11:24:25;;;;;;;8.70;4.22;;;15.60;99.90;;;;;;5013059;28;20051;-55
2022/05/25 11:27:06;;;;;;;6.35;4.18;;;15.60;99.90;;;;;;5029433;28;20045;-55
2022/05/25 11:30:08;;;;;;;10.38;4.32;;;15.80;99.90;;;;;;5029242;28;20399;-55
2022/05/25 11:32:52;;;;;;;5.30;4.28;;;16.10;99.90;;;;;;5013209;28;20156;-55
2022/05/25 11:35:37;;;;;;;5.28;3.70;;;16.30;99.90;;;;;;5031116;28;20416;-55
2022/05/25 11:38:19;;;;;;;5.00;4.50;;;16.30;99.90;;;;;;5072836;28;20044;-55
2022/05/25 11:41:10;;;;;;;8.07;5.18;;;16.40;99.90;;;;;;5095726;28;20044;-55
2022/05/25 11:43:42;;;;;;;9.20;5.30;;;16.60;99.90;;;;;;5095786;28;20040;-55
2022/05/25 11:46:51;;;;;;;8.38;5.15;;;17.00;99.90;;;;;;5095918;28;20463;-55
2022/05/25 11:49:37;;;;;;;5.85;5.30;;;17.10;99.90;;;;;;4994045;28;20046;-55
2022/05/25 11:52:22;;;;;;;7.60;5.45;;;17.20;99.90;;;;;;4993802;28;20425;-55
2022/05/25 11:55:10;;;;;;;7.50;5.10;;;17.30;99.90;;;;;;4993843;28;20046;-55
2022/05/25 11:58:00;;;;;;;9.82;5.35;;;17.40;99.90;;;;;;4993652;28;20401;-55
2022/05/25 12:00:47;;;;;;;;;;;17.40;99.90;;;;;;4978175;28;20046;-55
2022/05/25 12:03:28;;;;;;;6.78;4.63;;;17.30;99.90;;;;;;4993750;28;20354;-55
2022/05/25 12:06:24;;;;;;;12.48;5.38;;;17.10;99.90;;;;;;4993607;28;20046;-55
2022/05/25 12:09:09;;;;;;;7.43;5.80;;;16.90;99.90;;;;;;4993419;28;20489;-55
2022/05/25 12:11:45;;;;;;;5.70;4.30;;;16.90;99.90;;;;;;4993665;28;20117;-55
2022/05/25 12:14:29;;;;;;;3.72;2.75;;;17.20;99.90;;;;;;5009282;28;20050;-55
2022/05/25 12:17:02;;;;;;;3.10;1.60;;;17.40;99.90;;;;;;5012911;28;20066;-55
2022/05/25 12:19:32;;;;;;;2.00;1.40;;;17.50;99.90;;;;;;5013261;28;20042;-55
2022/05/25 12:22:04;;;;;;;5.47;2.03;;;17.70;99.90;;;;;;5013080;28;20057;-55
2022/05/25 12:24:33;;;;;;;8.80;2.42;;;17.90;99.90;;;;;;5095100;28;20040;-55
2022/05/25 12:27:02;;;;;;;4.43;2.13;;;18.00;99.90;;;;;;5102914;28;20038;-55
2022/05/25 12:29:36;;;;;;;5.85;2.53;;;18.20;99.90;;;;;;5115598;28;20045;-55
2022/05/25 12:32:02;;;;;;;4.07;2.90;;;18.40;99.90;;;;;;5115758;28;20486;-55
2022/05/25 12:34:37;;;;;;;7.10;2.92;;;18.50;99.90;;;;;;5115314;28;20043;-55
2022/05/25 12:37:04;;;;;;;5.72;2.78;;;18.40;99.90;;;;;;5096639;28;20052;-55
2022/05/25 12:39:42;;;;;;;4.25;2.60;;;18.30;99.90;;;;;;5115234;28;20085;-55
2022/05/25 12:42:23;;;;;;;4.07;1.92;;;18.30;99.90;;;;;;5115682;28;20046;-55
2022/05/25 12:50:33;;;;;;;4.70;1.65;;;18.10;99.90;;;;;;5115072;28;20486;-55
2022/05/25 12:53:34;;;;;;;6.25;1.45;;;18.20;99.90;;;;;;5096530;28;20898;-55
2022/05/25 12:56:15;;;;;;;6.45;0.90;;;18.20;99.90;;;;;;5115208;28;20367;-55
2022/05/25 12:58:47;;;;;;;8.15;1.40;;;18.40;99.90;;;;;;5114919;28;20043;-55
2022/05/25 13:01:27;;;;;;;9.50;1.00;;;18.50;99.90;;;;;;5114625;28;20035;-55
2022/05/25 13:03:56;;;;;;;4.05;0.80;;;18.80;99.90;;;;;;5114492;28;20040;-55
2022/05/25 13:06:27;;;;;;;;;;;19.10;99.90;;;;;;5114909;28;20039;-55
2022/05/25 13:08:53;;;;;;;4.95;0.95;;;19.20;99.90;;;;;;5114577;28;19968;-55
2022/05/25 13:11:39;;;;;;;4.40;0.57;;;19.40;99.90;;;;;;5114618;28;20486;-55
2022/05/25 13:14:07;;;;;;;3.40;0.80;;;19.40;99.90;;;;;;5114294;28;20081;-55
2022/05/25 13:16:42;;;;;;;6.82;1.00;;;19.40;99.90;;;;;;5114685;28;20058;-56
2022/05/25 13:19:18;;;;;;;3.10;0.73;;;19.20;99.90;;;;;;5114635;28;20039;-55
2022/05/25 13:22:08;;;;;;;9.27;0.80;;;19.40;99.90;;;;;;5114071;28;20051;-55
2022/05/25 13:24:55;;;;;;;4.70;0.88;;;19.30;99.90;;;;;;5114380;28;20043;-55
2022/05/25 13:27:41;;;;;;;11.32;0.95;;;19.10;99.90;;;;;;5114828;28;20036;-55
2022/05/25 13:30:26;;;;;;;5.30;0.90;;;18.70;99.90;;;;;;5114098;28;20497;-56
2022/05/25 13:32:56;;;;;;;5.18;0.82;;;18.40;99.90;;;;;;5096445;28;20051;-55
2022/05/25 13:35:21;;;;;;;8.20;1.05;;;18.30;99.90;;;;;;5114116;28;20446;-55
2022/05/25 13:38:11;;;;;;;5.03;1.08;;;18.20;99.90;;;;;;5114377;28;20456;-55